createdAt,value
2019-01-30T00:00:48.711Z,6.70
2019-01-30T00:03:19.426Z,6.17
2019-01-30T00:05:50.879Z,11.57
2019-01-30T00:08:21.824Z,7.50
2019-01-30T00:10:53.097Z,7.27
2019-01-30T00:13:26.391Z,10.80
2019-01-30T00:15:58.959Z,9.10
2019-01-30T00:18:32.642Z,6.00
2019-01-30T00:21:05.591Z,6.27
2019-01-30T00:23:38.028Z,11.30
2019-01-30T00:26:08.588Z,6.47
2019-01-30T00:28:39.110Z,6.60
2019-01-30T00:31:09.723Z,7.13
2019-01-30T00:33:40.504Z,6.87
2019-01-30T00:36:11.488Z,7.40
2019-01-30T00:38:43.194Z,6.83
2019-01-30T00:41:14.975Z,7.60
2019-01-30T00:43:47.887Z,8.30
2019-01-30T00:46:18.359Z,8.10
2019-01-30T00:48:49.250Z,7.23
2019-01-30T00:51:19.816Z,6.83
2019-01-30T00:53:50.384Z,5.93
2019-01-30T00:56:20.967Z,5.23
2019-01-30T00:58:51.966Z,5.70
2019-01-30T01:01:22.505Z,9.10
2019-01-30T01:03:53.844Z,6.37
2019-01-30T01:06:25.585Z,9.70
2019-01-30T01:08:57.066Z,6.80
2019-01-30T01:11:28.361Z,5.93
2019-01-30T01:13:59.326Z,7.33
2019-01-30T01:16:30.111Z,7.13
2019-01-30T01:19:00.563Z,6.93
2019-01-30T01:21:32.377Z,6.63
2019-01-30T01:24:03.356Z,6.10
2019-01-30T01:26:34.703Z,7.70
2019-01-30T01:29:06.985Z,5.23
2019-01-30T01:31:38.567Z,6.40
2019-01-30T01:34:20.016Z,12.87
2019-01-30T01:36:55.862Z,9.50
2019-01-30T01:39:26.896Z,7.80
2019-01-30T01:41:59.530Z,7.50
2019-01-30T01:44:30.090Z,5.17
2019-01-30T01:47:00.544Z,8.90
2019-01-30T01:49:31.524Z,6.53
2019-01-30T01:52:02.948Z,6.97
2019-01-30T01:54:33.419Z,7.30
2019-01-30T01:57:04.008Z,6.17
2019-01-30T01:59:34.576Z,5.70
2019-01-30T02:02:05.778Z,6.80
2019-01-30T02:04:37.906Z,6.27
2019-01-30T02:07:08.665Z,6.47
2019-01-30T02:09:39.651Z,6.13
2019-01-30T02:12:11.072Z,7.00
2019-01-30T02:14:43.676Z,7.87
2019-01-30T02:17:14.375Z,7.30
2019-01-30T02:19:45.709Z,8.00
2019-01-30T02:22:17.109Z,8.10
2019-01-30T02:24:48.251Z,6.03
2019-01-30T02:27:20.981Z,9.33
2019-01-30T02:29:52.586Z,6.00
2019-01-30T02:32:24.084Z,13.43
2019-01-30T02:34:55.855Z,8.50
2019-01-30T02:37:26.877Z,7.10
2019-01-30T02:39:57.109Z,4.70
2019-01-30T02:42:28.254Z,10.37
2019-01-30T02:45:01.359Z,4.83
2019-01-30T02:47:34.014Z,10.20
2019-01-30T02:50:06.459Z,8.07
2019-01-30T02:52:37.525Z,7.47
2019-01-30T02:55:10.439Z,9.67
2019-01-30T02:57:41.021Z,6.07
2019-01-30T03:00:26.927Z,7.23
2019-01-30T03:02:58.020Z,5.40
2019-01-30T03:05:30.845Z,8.03
2019-01-30T03:08:03.547Z,7.27
2019-01-30T03:10:48.021Z,8.10
2019-01-30T03:13:36.415Z,7.57
2019-01-30T03:16:36.045Z,9.33
2019-01-30T03:19:11.095Z,8.57
2019-01-30T03:21:46.174Z,7.30
2019-01-30T03:24:25.008Z,9.60
2019-01-30T03:27:05.743Z,6.60
2019-01-30T03:29:44.361Z,8.00
2019-01-30T03:32:32.931Z,9.60
2019-01-30T03:35:30.023Z,7.60
2019-01-30T03:38:25.857Z,8.70
2019-01-30T03:41:14.543Z,7.00
2019-01-30T03:47:08.596Z,9.40
2019-01-30T03:50:05.876Z,9.57
2019-01-30T03:52:40.100Z,7.77
2019-01-30T03:55:15.716Z,7.10
2019-01-30T03:57:50.389Z,7.63
2019-01-30T04:00:27.676Z,8.80
2019-01-30T04:03:45.536Z,9.30
2019-01-30T04:06:55.149Z,8.13
2019-01-30T04:09:34.723Z,19.33
2019-01-30T04:12:24.554Z,5.20
2019-01-30T04:15:12.058Z,8.07
2019-01-30T04:18:25.526Z,7.60
2019-01-30T04:21:15.038Z,8.07
2019-01-30T04:23:59.037Z,6.60
2019-01-30T04:26:33.428Z,10.33
2019-01-30T04:29:05.456Z,8.17
2019-01-30T04:31:38.556Z,10.40
2019-01-30T04:34:38.617Z,7.80
2019-01-30T04:37:20.017Z,8.90
2019-01-30T04:39:55.324Z,5.30
2019-01-30T04:42:30.895Z,5.27
2019-01-30T04:45:10.788Z,5.50
2019-01-30T04:47:47.856Z,8.00
2019-01-30T04:50:29.875Z,6.17
2019-01-30T04:56:21.715Z,6.13
2019-01-30T04:59:17.939Z,7.53
2019-01-30T05:02:05.976Z,5.20
2019-01-30T05:04:51.132Z,7.37
2019-01-30T05:07:34.660Z,8.67
2019-01-30T05:10:38.127Z,11.33
2019-01-30T05:13:18.052Z,9.40
2019-01-30T05:16:20.441Z,9.50
2019-01-30T05:22:32.206Z,7.13
2019-01-30T05:25:19.544Z,6.13
2019-01-30T05:28:02.721Z,5.83
2019-01-30T05:30:58.025Z,6.57
2019-01-30T05:33:45.060Z,7.03
2019-01-30T05:36:17.212Z,6.10
2019-01-30T05:39:47.302Z,6.17
2019-01-30T05:42:19.552Z,6.77
2019-01-30T05:44:55.021Z,6.80
2019-01-30T05:47:25.554Z,6.03
2019-01-30T05:49:56.125Z,8.70
2019-01-30T05:56:30.397Z,8.03
2019-01-30T05:59:06.116Z,7.27
2019-01-30T06:02:11.828Z,9.00
2019-01-30T06:04:34.229Z,7.93
2019-01-30T06:07:36.729Z,7.70
2019-01-30T06:10:07.935Z,8.10
2019-01-30T06:12:42.243Z,9.63
2019-01-30T06:15:35.838Z,7.83
2019-01-30T06:18:37.762Z,10.83
2019-01-30T06:21:33.769Z,7.93
2019-01-30T06:24:05.713Z,9.40
2019-01-30T06:26:39.369Z,8.13
2019-01-30T06:29:12.097Z,10.27
2019-01-30T06:31:42.754Z,8.40
2019-01-30T06:34:14.590Z,8.97
2019-01-30T06:36:50.160Z,9.57
2019-01-30T06:39:22.653Z,8.97
2019-01-30T06:42:03.466Z,10.80
2019-01-30T06:44:42.523Z,8.13
2019-01-30T06:47:32.866Z,8.77
2019-01-30T06:50:06.002Z,10.40
2019-01-30T06:52:36.600Z,8.37
2019-01-30T06:55:12.202Z,11.27
2019-01-30T06:57:44.562Z,14.50
2019-01-30T07:00:18.659Z,11.23
2019-01-30T07:02:51.394Z,10.00
2019-01-30T07:05:26.075Z,12.97
2019-01-30T07:08:02.984Z,11.30
2019-01-30T07:10:44.564Z,7.10
2019-01-30T07:13:18.772Z,10.70
2019-01-30T07:15:51.332Z,8.07
2019-01-30T07:18:25.617Z,8.97
2019-01-30T07:20:59.346Z,8.27
2019-01-30T07:23:31.189Z,11.80
2019-01-30T07:26:02.442Z,10.27
2019-01-30T07:28:37.482Z,9.80
2019-01-30T07:31:13.129Z,12.07
2019-01-30T07:33:47.675Z,12.40
2019-01-30T07:36:20.859Z,10.70
2019-01-30T07:38:52.773Z,15.70
2019-01-30T07:41:26.824Z,12.57
2019-01-30T07:44:03.395Z,13.67
2019-01-30T07:46:37.370Z,10.70
2019-01-30T07:49:09.968Z,9.67
2019-01-30T07:51:43.162Z,10.43
2019-01-30T07:54:18.345Z,9.00
2019-01-30T07:56:53.651Z,10.70
2019-01-30T07:59:32.123Z,8.33
2019-01-30T08:02:08.541Z,11.50
2019-01-30T08:04:56.016Z,11.33
2019-01-30T08:07:29.052Z,6.03
2019-01-30T08:10:01.115Z,10.53
2019-01-30T08:12:33.651Z,9.30
2019-01-30T08:15:06.028Z,8.37
2019-01-30T08:17:42.558Z,13.80
2019-01-30T08:20:15.674Z,13.20
2019-01-30T08:22:47.006Z,10.20
2019-01-30T08:25:20.562Z,9.70
2019-01-30T08:27:52.824Z,10.10
2019-01-30T08:30:36.925Z,7.73
2019-01-30T08:33:07.427Z,8.90
2019-01-30T08:35:40.410Z,9.57
2019-01-30T08:38:14.516Z,10.80
2019-01-30T08:40:45.958Z,9.90
2019-01-30T08:43:20.827Z,8.00
2019-01-30T08:45:52.606Z,8.83
2019-01-30T08:48:34.865Z,10.10
2019-01-30T08:51:06.588Z,8.00
2019-01-30T08:53:40.398Z,8.37
2019-01-30T08:56:11.633Z,8.67
2019-01-30T08:58:45.281Z,6.50
2019-01-30T09:01:18.703Z,9.23
2019-01-30T09:03:55.378Z,6.53
2019-01-30T09:06:27.391Z,10.47
2019-01-30T09:08:59.910Z,7.90
2019-01-30T09:11:31.533Z,7.50
2019-01-30T09:14:02.679Z,10.50
2019-01-30T09:16:34.492Z,10.07
2019-01-30T09:19:08.527Z,7.73
2019-01-30T09:21:41.388Z,8.70
2019-01-30T09:24:16.159Z,9.97
2019-01-30T09:26:52.470Z,10.70
2019-01-30T09:29:23.325Z,6.27
2019-01-30T09:31:56.955Z,8.43
2019-01-30T09:34:30.568Z,8.90
2019-01-30T09:37:04.971Z,7.93
2019-01-30T09:39:41.451Z,6.03
2019-01-30T09:42:14.131Z,9.00
2019-01-30T09:44:46.366Z,7.43
2019-01-30T09:47:21.033Z,5.83
2019-01-30T09:50:14.899Z,5.17
2019-01-30T09:53:04.808Z,5.37
2019-01-30T09:55:35.451Z,6.53
2019-01-30T09:58:12.143Z,3.60
2019-01-30T10:00:43.593Z,4.10
2019-01-30T10:03:16.987Z,3.37
2019-01-30T10:05:55.649Z,3.00
2019-01-30T10:08:28.258Z,4.77
2019-01-30T10:11:04.777Z,2.90
2019-01-30T10:13:39.486Z,2.70
2019-01-30T10:16:15.677Z,2.73
2019-01-30T10:18:47.209Z,3.53
2019-01-30T10:21:24.987Z,2.17
2019-01-30T10:24:06.934Z,2.20
2019-01-30T10:26:54.811Z,4.30
2019-01-30T10:29:51.303Z,5.80
2019-01-30T10:32:22.679Z,2.53
2019-01-30T10:38:16.381Z,1.90
2019-01-30T10:44:31.924Z,1.50
2019-01-30T10:50:44.934Z,0.83
2019-01-30T10:53:15.057Z,0.63
2019-01-30T10:56:28.817Z,0.80
2019-01-30T10:59:30.979Z,0.70
2019-01-30T11:02:33.443Z,0.77
2019-01-30T11:05:34.927Z,1.57
2019-01-30T11:08:13.168Z,0.50
2019-01-30T11:10:47.213Z,0.40
2019-01-30T11:13:33.238Z,0.50
2019-01-30T11:19:16.184Z,0.50
2019-01-30T11:21:46.119Z,0.50
2019-01-30T11:24:15.508Z,0.60
2019-01-30T11:26:44.880Z,0.60
2019-01-30T11:29:14.207Z,0.50
2019-01-30T11:31:43.643Z,0.50
2019-01-30T11:34:12.930Z,0.53
2019-01-30T11:36:43.669Z,0.40
2019-01-30T11:39:12.982Z,0.57
2019-01-30T11:41:42.361Z,0.50
2019-01-30T11:44:11.647Z,0.50
2019-01-30T11:46:41.037Z,0.70
2019-01-30T11:49:11.720Z,0.40
2019-01-30T11:51:41.367Z,0.40
2019-01-30T11:54:10.977Z,0.50
2019-01-30T11:56:41.453Z,2.40
2019-01-30T11:59:11.137Z,0.50
2019-01-30T12:01:40.948Z,0.60
2019-01-30T12:04:17.809Z,0.50
2019-01-30T12:06:44.260Z,0.70
2019-01-30T12:09:16.386Z,2.43
2019-01-30T12:11:46.252Z,1.53
2019-01-30T12:14:15.918Z,1.67
2019-01-30T12:16:47.621Z,0.60
2019-01-30T12:19:17.937Z,0.90
2019-01-30T12:21:49.117Z,0.50
2019-01-30T12:24:20.054Z,0.73
2019-01-30T12:26:50.273Z,0.80
2019-01-30T12:29:21.888Z,0.60
2019-01-30T12:31:52.068Z,4.40
2019-01-30T12:34:27.996Z,1.43
2019-01-30T12:36:53.580Z,0.77
2019-01-30T12:39:23.330Z,0.63
2019-01-30T12:41:53.526Z,0.80
2019-01-30T12:44:24.938Z,0.63
2019-01-30T12:46:54.845Z,0.70
2019-01-30T12:49:24.780Z,0.60
2019-01-30T12:51:55.435Z,1.13
2019-01-30T12:54:27.624Z,0.90
2019-01-30T12:56:58.399Z,0.70
2019-01-30T12:59:28.673Z,0.93
2019-01-30T13:01:59.162Z,1.20
2019-01-30T13:04:38.653Z,0.60
2019-01-30T13:07:02.568Z,0.60
2019-01-30T13:09:32.764Z,0.60
2019-01-30T13:12:02.905Z,0.60
2019-01-30T13:14:33.662Z,0.60
2019-01-30T13:17:05.143Z,0.70
2019-01-30T13:19:36.193Z,0.70
2019-01-30T13:22:06.566Z,0.93
2019-01-30T13:24:38.534Z,0.80
2019-01-30T13:27:08.300Z,1.60
2019-01-30T13:29:39.197Z,1.00
2019-01-30T13:32:09.643Z,0.70
2019-01-30T13:34:48.745Z,4.73
2019-01-30T13:37:16.038Z,0.90
2019-01-30T13:39:46.088Z,0.53
2019-01-30T13:42:16.852Z,1.57
2019-01-30T13:44:46.834Z,0.80
2019-01-30T13:47:17.711Z,0.77
2019-01-30T13:49:47.981Z,1.43
2019-01-30T13:52:18.446Z,0.50
2019-01-30T13:54:49.023Z,2.67
2019-01-30T13:57:20.583Z,0.80
2019-01-30T13:59:52.386Z,2.20
2019-01-30T14:02:22.896Z,4.30
2019-01-30T14:04:59.604Z,1.50
2019-01-30T14:07:25.743Z,2.60
2019-01-30T14:09:55.729Z,2.97
2019-01-30T14:12:25.815Z,0.97
2019-01-30T14:14:57.280Z,1.67
2019-01-30T14:17:28.456Z,0.70
2019-01-30T14:20:00.641Z,0.73
2019-01-30T14:22:31.476Z,1.10
2019-01-30T14:25:06.013Z,1.97
2019-01-30T14:27:38.520Z,0.70
2019-01-30T14:30:18.052Z,4.70
2019-01-30T14:32:49.784Z,0.90
2019-01-30T14:35:36.176Z,0.93
2019-01-30T14:38:13.294Z,0.90
2019-01-30T14:40:44.144Z,0.90
2019-01-30T14:43:14.252Z,1.00
2019-01-30T14:45:46.821Z,0.80
2019-01-30T14:48:17.486Z,1.20
2019-01-30T14:50:47.585Z,1.57
2019-01-30T14:53:17.768Z,0.90
2019-01-30T14:55:49.223Z,1.37
2019-01-30T14:58:19.381Z,1.10
2019-01-30T15:00:50.148Z,0.70
2019-01-30T15:03:21.045Z,0.70
2019-01-30T15:05:51.414Z,0.70
2019-01-30T15:08:22.841Z,0.80
2019-01-30T15:10:52.826Z,0.70
2019-01-30T15:13:22.683Z,0.77
2019-01-30T15:15:53.463Z,0.70
2019-01-30T15:18:23.860Z,0.80
2019-01-30T15:20:54.159Z,1.33
2019-01-30T15:23:25.638Z,0.90
2019-01-30T15:25:56.312Z,1.37
2019-01-30T15:28:26.338Z,0.80
2019-01-30T15:30:56.330Z,1.27
2019-01-30T15:33:29.048Z,0.80
2019-01-30T15:36:01.416Z,2.70
2019-01-30T15:38:32.466Z,0.90
2019-01-30T15:41:02.921Z,0.60
2019-01-30T15:43:35.446Z,0.83
2019-01-30T15:46:06.382Z,2.07
2019-01-30T15:48:39.201Z,0.80
2019-01-30T15:51:11.186Z,0.70
2019-01-30T15:53:41.495Z,0.90
2019-01-30T15:56:12.731Z,0.60
2019-01-30T15:58:44.530Z,0.50
2019-01-30T16:01:29.858Z,0.97
2019-01-30T16:04:01.219Z,0.50
2019-01-30T16:06:31.420Z,0.60
2019-01-30T16:09:02.552Z,1.10
2019-01-30T16:11:33.678Z,0.90
2019-01-30T16:14:04.214Z,0.53
2019-01-30T16:16:34.332Z,0.63
2019-01-30T16:19:08.891Z,1.37
2019-01-30T16:21:40.083Z,0.80
2019-01-30T16:24:10.466Z,0.80
2019-01-30T16:26:41.267Z,0.63
2019-01-30T16:29:12.923Z,0.90
2019-01-30T16:31:42.986Z,1.07
2019-01-30T16:34:14.564Z,1.20
2019-01-30T16:36:44.988Z,0.80
2019-01-30T16:39:14.907Z,1.03
2019-01-30T16:41:45.098Z,1.77
2019-01-30T16:44:18.196Z,0.60
2019-01-30T16:46:49.420Z,1.67
2019-01-30T16:49:19.929Z,1.83
2019-01-30T16:51:50.157Z,1.37
2019-01-30T16:54:20.326Z,1.07
2019-01-30T16:56:51.808Z,2.40
2019-01-30T16:59:21.193Z,0.63
2019-01-30T17:01:50.440Z,1.80
2019-01-30T17:04:19.978Z,1.03
2019-01-30T17:06:50.191Z,1.27
2019-01-30T17:09:21.134Z,1.27
2019-01-30T17:11:54.956Z,0.80
2019-01-30T17:14:25.824Z,1.47
2019-01-30T17:16:56.499Z,0.77
2019-01-30T17:19:27.154Z,1.77
2019-01-30T17:21:57.691Z,1.70
2019-01-30T17:24:28.001Z,1.83
2019-01-30T17:26:58.666Z,4.40
2019-01-30T17:29:35.762Z,3.03
2019-01-30T17:32:06.743Z,1.40
2019-01-30T17:34:37.428Z,3.27
2019-01-30T17:37:09.633Z,0.90
2019-01-30T17:39:42.348Z,5.07
2019-01-30T17:42:16.672Z,2.50
2019-01-30T17:44:48.325Z,1.10
2019-01-30T17:47:19.626Z,3.43
2019-01-30T17:49:51.088Z,3.43
2019-01-30T17:52:22.560Z,2.17
2019-01-30T17:54:55.008Z,2.40
2019-01-30T17:57:25.861Z,3.30
2019-01-30T17:59:58.130Z,1.27
2019-01-30T18:02:40.373Z,2.33
2019-01-30T18:05:13.566Z,1.60
2019-01-30T18:07:50.227Z,2.60
2019-01-30T18:10:20.466Z,11.20
2019-01-30T18:12:51.472Z,3.20
2019-01-30T18:15:22.796Z,4.27
2019-01-30T18:18:00.631Z,1.50
2019-01-30T18:20:37.016Z,2.33
2019-01-30T18:23:09.857Z,3.03
2019-01-30T18:25:42.417Z,1.30
2019-01-30T18:28:18.034Z,1.30
2019-01-30T18:30:49.710Z,4.60
2019-01-30T18:33:25.531Z,2.83
2019-01-30T18:35:57.948Z,2.30
2019-01-30T18:38:31.268Z,4.60
2019-01-30T18:41:04.118Z,2.30
2019-01-30T18:43:36.895Z,3.77
2019-01-30T18:46:09.471Z,2.03
2019-01-30T18:48:40.630Z,1.77
2019-01-30T18:51:13.314Z,4.43
2019-01-30T18:53:46.382Z,4.00
2019-01-30T18:56:17.819Z,2.97
2019-01-30T18:58:48.788Z,2.57
2019-01-30T19:01:20.418Z,5.50
2019-01-30T19:03:54.917Z,2.80
2019-01-30T19:06:27.532Z,1.87
2019-01-30T19:09:00.236Z,3.73
2019-01-30T19:11:31.686Z,4.83
2019-01-30T19:14:04.880Z,1.37
2019-01-30T19:16:42.224Z,1.50
2019-01-30T19:19:14.216Z,2.30
2019-01-30T19:21:46.585Z,1.60
2019-01-30T19:24:19.870Z,2.50
2019-01-30T19:26:53.207Z,2.70
2019-01-30T19:29:26.655Z,3.33
2019-01-30T19:31:58.293Z,3.10
2019-01-30T19:34:31.868Z,1.80
2019-01-30T19:37:03.945Z,2.03
2019-01-30T19:39:35.189Z,5.73
2019-01-30T19:42:06.482Z,2.10
2019-01-30T19:44:39.627Z,3.40
2019-01-30T19:47:12.953Z,2.10
2019-01-30T19:49:45.165Z,1.50
2019-01-30T19:52:18.132Z,2.03
2019-01-30T19:54:50.035Z,2.53
2019-01-30T19:57:22.276Z,2.50
2019-01-30T19:59:53.281Z,2.30
2019-01-30T20:02:26.771Z,2.40
2019-01-30T20:04:58.936Z,1.97
2019-01-30T20:07:30.325Z,2.90
2019-01-30T20:10:02.570Z,5.30
2019-01-30T20:12:36.013Z,2.70
2019-01-30T20:15:09.292Z,2.53
2019-01-30T20:17:42.377Z,2.63
2019-01-30T20:20:16.390Z,1.60
2019-01-30T20:22:49.144Z,2.33
2019-01-30T20:25:22.967Z,1.33
2019-01-30T20:27:54.049Z,2.03
2019-01-30T20:30:25.010Z,2.40
2019-01-30T20:32:56.736Z,5.50
2019-01-30T20:35:27.364Z,2.70
2019-01-30T20:38:00.806Z,2.83
2019-01-30T20:40:32.029Z,1.30
2019-01-30T20:43:03.824Z,7.87
2019-01-30T20:45:39.035Z,2.10
2019-01-30T20:48:11.941Z,3.43
2019-01-30T20:50:43.924Z,2.00
2019-01-30T20:53:16.513Z,1.60
2019-01-30T20:55:49.285Z,3.67
2019-01-30T20:58:25.378Z,3.37
2019-01-30T21:00:58.147Z,6.70
2019-01-30T21:03:33.970Z,1.93
2019-01-30T21:06:05.635Z,3.27
2019-01-30T21:08:39.743Z,1.83
2019-01-30T21:11:13.538Z,1.20
2019-01-30T21:13:46.841Z,1.70
2019-01-30T21:16:18.529Z,2.40
2019-01-30T21:18:50.069Z,6.23
2019-01-30T21:21:20.835Z,2.30
2019-01-30T21:23:52.073Z,2.27
2019-01-30T21:26:22.934Z,3.43
2019-01-30T21:28:55.460Z,3.43
2019-01-30T21:31:26.868Z,3.20
2019-01-30T21:33:58.952Z,2.10
2019-01-30T21:36:29.816Z,5.30
2019-01-30T21:39:00.149Z,3.97
2019-01-30T21:41:30.654Z,3.60
2019-01-30T21:44:03.895Z,3.43
2019-01-30T21:46:34.201Z,1.70
2019-01-30T21:49:04.675Z,1.93
2019-01-30T21:51:36.359Z,2.37
2019-01-30T21:54:08.009Z,6.43
2019-01-30T21:56:38.795Z,4.67
2019-01-30T21:59:08.976Z,3.43
2019-01-30T22:01:39.077Z,3.20
2019-01-30T22:04:09.795Z,5.07
2019-01-30T22:06:40.079Z,2.37
2019-01-30T22:09:10.546Z,3.47
2019-01-30T22:11:41.967Z,3.70
2019-01-30T22:14:13.339Z,7.03
2019-01-30T22:16:47.216Z,4.40
2019-01-30T22:19:20.342Z,5.20
2019-01-30T22:21:51.939Z,7.10
2019-01-30T22:24:24.932Z,3.73
2019-01-30T22:26:58.915Z,4.57
2019-01-30T22:29:32.706Z,3.37
2019-01-30T22:32:05.641Z,4.43
2019-01-30T22:34:37.022Z,7.73
2019-01-30T22:37:10.463Z,5.50
2019-01-30T22:39:43.665Z,5.63
2019-01-30T22:42:15.401Z,3.67
2019-01-30T22:44:47.503Z,4.83
2019-01-30T22:47:19.252Z,5.77
2019-01-30T22:49:54.269Z,5.27
2019-01-30T22:52:26.706Z,3.00
2019-01-30T22:54:57.947Z,3.97
2019-01-30T22:57:30.393Z,6.50
2019-01-30T23:00:01.789Z,3.47
2019-01-30T23:02:35.438Z,10.03
2019-01-30T23:05:38.234Z,3.90
2019-01-30T23:08:30.209Z,5.37
2019-01-30T23:11:57.531Z,3.63
2019-01-30T23:14:38.523Z,4.03
2019-01-30T23:18:09.045Z,7.87
2019-01-30T23:21:02.422Z,2.77
2019-01-30T23:24:06.344Z,4.10
2019-01-30T23:26:55.168Z,6.87
2019-01-30T23:30:11.463Z,4.07
2019-01-30T23:33:18.358Z,7.63
2019-01-30T23:36:12.328Z,3.83
2019-01-30T23:39:25.882Z,6.33
2019-01-30T23:42:48.860Z,6.57
2019-01-30T23:45:50.457Z,4.93
2019-01-30T23:49:01.322Z,2.50
2019-01-30T23:52:08.069Z,4.93
2019-01-30T23:55:06.519Z,3.90
2019-01-30T23:58:16.187Z,3.50
